This is the latest recevied weather packets stored in our database for station/object EA7RX-4. If no packets are shown the sender has not sent any weather packets the latest 1 day(s).
| Time | Temp. | Humidity | Pressure | Rain* | Wind** | Luminosity | Snow |
|---|---|---|---|---|---|---|---|
| 1777995603 | 15.56° C | 34% | 1009.4 hPa | 0 mm | 3.13 m/s, 233° | 414 W/m² | - |
| 1777995003 | 16.11° C | 34% | 1009.5 hPa | 0 mm | 4.92 m/s, 244° | 254 W/m² | - |
| 1777994403 | 16.11° C | 33% | 1010 hPa | 0 mm | 3.13 m/s, 258° | 744 W/m² | - |
| 1777993803 | 15.56° C | 34% | 1009.7 hPa | 0 mm | 4.02 m/s, 254° | 271 W/m² | - |
| 1777993203 | 15.56° C | 33% | 1009.8 hPa | 0 mm | 4.92 m/s, 245° | 180 W/m² | - |
| 1777992603 | 16.11° C | 32% | 1009.7 hPa | 0 mm | 4.47 m/s, 245° | 190 W/m² | - |
| 1777992003 | 15.56° C | 33% | 1009.8 hPa | 0 mm | 4.02 m/s, 251° | 204 W/m² | - |
| 1777991403 | 16.67° C | 33% | 1009.8 hPa | 0 mm | 4.02 m/s, 251° | 144 W/m² | - |
| 1777990803 | 16.11° C | 34% | 1009.7 hPa | 0 mm | 4.47 m/s, 248° | 871 W/m² | - |
| 1777990203 | 15.56° C | 36% | 1009.7 hPa | 0 mm | 3.13 m/s, 232° | 248 W/m² | - |
| 1777989603 | 15.56° C | 37% | 1010.2 hPa | 0 mm | 4.47 m/s, 241° | 161 W/m² | - |
| 1777989003 | 15.56° C | 36% | 1010.2 hPa | 0 mm | 4.02 m/s, 243° | 158 W/m² | - |
| 1777988403 | 15.56° C | 37% | 1010.1 hPa | 0 mm | 4.47 m/s, 261° | 937 W/m² | - |
| 1777987803 | 14.44° C | 39% | 1010.2 hPa | 0 mm | 3.13 m/s, 245° | 1002 W/m² | - |
| 1777987203 | 14.44° C | 41% | 1010.5 hPa | 0 mm | 2.68 m/s, 241° | 478 W/m² | - |
| 1777986603 | 14.44° C | 41% | 1010.4 hPa | 0 mm | 3.13 m/s, 250° | 193 W/m² | - |
| 1777986003 | 15° C | 40% | 1010.4 hPa | 0 mm | 4.47 m/s, 229° | 967 W/m² | - |
| 1777985403 | 14.44° C | 38% | 1010.5 hPa | 0 mm | 3.58 m/s, 231° | 259 W/m² | - |
| 1777984803 | 15° C | 39% | 1010.5 hPa | 0 mm | 4.92 m/s, 240° | 1002 W/m² | - |
| 1777984203 | 14.44° C | 43% | 1010.5 hPa | 0 mm | 4.47 m/s, 232° | 1039 W/m² | - |
| 1777983603 | 15° C | 39% | 1010.6 hPa | 0 mm | 3.13 m/s, 233° | 196 W/m² | - |
| 1777983003 | 14.44° C | 41% | 1010.7 hPa | 0 mm | 3.58 m/s, 233° | 1046 W/m² | - |
| 1777982403 | 14.44° C | 43% | 1010.6 hPa | 0 mm | 2.24 m/s, 252° | 173 W/m² | - |
| 1777981803 | 13.89° C | 46% | 1010.8 hPa | 0 mm | 2.68 m/s, 228° | 497 W/m² | - |
| 1777981203 | 13.33° C | 48% | 1010.8 hPa | 0 mm | 4.02 m/s, 243° | 449 W/m² | - |
* Rain latest hour (hover to see other rain measurements)
** Current wind speed in m/s (hover to see current wind gust speed)